Terminal Aerodrome Forecast
Issued by NWS

Home | Current Version | Previous Version | Text Only | Print | Product List | Glossary On
Versions: 1 2 3 4 5 6 7 8 9 10 11 12 13 14
000
FTUS44 KEPZ 300500
TAFDMN
TAF
KDMN 300523Z 3006/3106 28006KT P6SM FEW070 SCT130 BKN250
     FM301800 27010G20KT P6SM VCTS FEW080CB SCT250=

USA.gov is the U.S. government's official web portal to all federal, state and local government web resources and services.